createdAt,value
2018-05-29T12:47:26.426Z,25.1
2018-05-29T12:48:16.247Z,25.1
2018-05-29T12:49:05.230Z,25.1
2018-05-29T12:49:56.597Z,25.1
2018-05-29T12:50:46.394Z,25.1
2018-05-29T12:51:36.423Z,25.1
2018-05-29T12:52:26.768Z,25.1
2018-05-29T12:53:17.679Z,25
2018-05-29T12:54:06.379Z,25
2018-05-29T12:54:57.310Z,25
2018-05-29T12:55:47.140Z,25.1
2018-05-29T12:56:37.094Z,25.1
2018-05-29T12:57:27.605Z,25.1
2018-05-29T12:58:17.285Z,25.1
2018-05-29T12:59:07.008Z,25.1
2018-05-29T12:59:57.405Z,25.1
2018-05-29T13:00:47.431Z,25.2
2018-05-29T13:01:36.976Z,25.2
2018-05-29T13:02:27.656Z,25.2
2018-05-29T13:03:17.593Z,25.1
2018-05-29T13:04:07.997Z,25.1
2018-05-29T13:04:57.761Z,25.1
2018-05-29T13:05:47.273Z,25.1
2018-05-29T13:06:37.903Z,25.1
2018-05-29T13:07:27.644Z,25.1
2018-05-29T13:08:17.178Z,25.1
2018-05-29T13:09:08.110Z,25.1
2018-05-29T13:09:57.545Z,25
2018-05-29T13:10:48.241Z,25.1
2018-05-29T13:11:37.698Z,25.1
2018-05-29T13:12:28.008Z,25.1
2018-05-29T13:13:18.383Z,25.1
2018-05-29T13:14:08.127Z,25.1
2018-05-29T13:14:58.822Z,25.1
2018-05-29T13:15:48.863Z,25.1
2018-05-29T13:16:38.548Z,25.1
2018-05-29T13:17:28.972Z,25.1
2018-05-29T13:18:19.042Z,25.1
2018-05-29T13:19:08.570Z,25.1
2018-05-29T13:19:59.166Z,25.1
2018-05-29T13:20:49.018Z,25.1
2018-05-29T13:21:38.727Z,25.1
2018-05-29T13:22:28.449Z,25.1
2018-05-29T13:23:19.157Z,25.1
2018-05-29T13:24:09.510Z,25.1
2018-05-29T13:24:58.707Z,25.1
2018-05-29T13:25:48.754Z,25.1
2018-05-29T13:26:39.397Z,25.1
2018-05-29T13:27:28.954Z,25.1
2018-05-29T13:28:19.019Z,25
2018-05-29T13:29:09.377Z,25
2018-05-29T13:29:59.942Z,25
2018-05-29T13:30:49.192Z,25
2018-05-29T13:31:39.533Z,25
2018-05-29T13:32:30.271Z,25.1
2018-05-29T13:33:19.620Z,25.1
2018-05-29T13:34:09.713Z,25
2018-05-29T13:35:00.387Z,25
2018-05-29T13:35:50.196Z,25.1
2018-05-29T13:36:40.216Z,25.1
2018-05-29T13:37:30.555Z,25.1
2018-05-29T13:38:20.506Z,25.1
2018-05-29T13:39:11.075Z,25.1
2018-05-29T13:40:00.701Z,25.1
2018-05-29T13:40:50.521Z,25.1
2018-05-29T13:41:40.318Z,25
2018-05-29T13:42:30.371Z,25
2018-05-29T13:43:19.832Z,25.1
2018-05-29T13:44:10.263Z,25
2018-05-29T13:45:00.501Z,25
2018-05-29T13:45:50.281Z,25.1
2018-05-29T13:46:40.909Z,25
2018-05-29T13:47:30.680Z,25.1
2018-05-29T13:48:21.081Z,25.1
2018-05-29T13:49:11.812Z,25.1
2018-05-29T13:50:01.457Z,25
2018-05-29T13:50:50.391Z,25
2018-05-29T13:51:41.287Z,25.1
2018-05-29T13:52:31.072Z,25.1
2018-05-29T13:53:21.151Z,25.1
2018-05-29T13:54:10.630Z,25.1
2018-05-29T13:55:01.548Z,25.1
2018-05-29T13:55:51.046Z,25.1
2018-05-29T13:56:40.922Z,25.1
2018-05-29T13:57:31.255Z,25.1
2018-05-29T13:58:21.842Z,25.1
2018-05-29T13:59:11.876Z,25.1
2018-05-29T14:00:01.071Z,25.1
2018-05-29T14:00:51.805Z,25.1
2018-05-29T14:01:41.818Z,25.1
2018-05-29T14:02:32.179Z,25.1
2018-05-29T14:03:22.706Z,25.1
2018-05-29T14:04:12.528Z,25.1
2018-05-29T14:05:02.343Z,25.2
2018-05-29T14:05:52.132Z,25.2
2018-05-29T14:06:42.550Z,25.1
2018-05-29T14:07:31.969Z,25.1
2018-05-29T14:08:22.036Z,25.1
2018-05-29T14:09:13.336Z,25.1
2018-05-29T14:10:02.743Z,25.1
2018-05-29T14:10:52.781Z,25.1
2018-05-29T14:11:42.540Z,25.1
2018-05-29T14:12:32.394Z,25.1
2018-05-29T14:13:22.748Z,25.1
2018-05-29T14:14:13.341Z,25.1
2018-05-29T14:15:03.055Z,25.1
2018-05-29T14:15:52.878Z,25.1
2018-05-29T14:16:43.536Z,25.1
2018-05-29T14:17:32.764Z,25.1
2018-05-29T14:18:23.143Z,25.1
2018-05-29T14:19:13.764Z,25.1
2018-05-29T14:20:03.541Z,25.1
2018-05-29T14:20:53.631Z,25.1
2018-05-29T14:21:43.334Z,25.1
2018-05-29T14:22:32.848Z,25.1
2018-05-29T14:23:23.300Z,25.1
2018-05-29T14:24:14.106Z,25.1
2018-05-29T14:25:03.066Z,25.1
2018-05-29T14:25:53.409Z,25.1
2018-05-29T14:26:43.546Z,25.1
2018-05-29T14:27:33.508Z,25.1
2018-05-29T14:28:23.879Z,25.1
2018-05-29T14:29:14.211Z,25.1
2018-05-29T14:30:04.538Z,25.1
2018-05-29T14:30:54.047Z,25.1
2018-05-29T14:31:44.672Z,25.1
2018-05-29T14:32:34.151Z,25.1
2018-05-29T14:33:24.780Z,25.1
2018-05-29T14:34:14.267Z,25.1
2018-05-29T14:35:03.801Z,25.1
2018-05-29T14:35:54.982Z,25.1
2018-05-29T14:36:45.033Z,25.1
2018-05-29T14:37:34.224Z,25.1
2018-05-29T14:38:25.100Z,25.1
2018-05-29T14:39:15.217Z,25.1
2018-05-29T14:40:04.467Z,25.1
2018-05-29T14:40:53.973Z,25.1
2018-05-29T14:41:45.373Z,25.1
2018-05-29T14:42:35.489Z,25.1
2018-05-29T14:43:25.343Z,25.1
2018-05-29T14:44:17.129Z,25.1
2018-05-29T14:45:04.918Z,25.1
2018-05-29T14:45:54.895Z,25.1
2018-05-29T14:46:45.811Z,25.1
2018-05-29T14:47:35.303Z,25.1
2018-05-29T14:48:25.692Z,25.1
2018-05-29T14:49:15.753Z,25.1
2018-05-29T14:50:06.068Z,25.1
2018-05-29T14:50:55.367Z,25.1
2018-05-29T14:51:46.179Z,25.1
2018-05-29T14:52:35.951Z,25.1
2018-05-29T14:53:26.337Z,25.1
2018-05-29T14:54:15.794Z,25.1
2018-05-29T14:55:06.442Z,25.1
2018-05-29T14:55:55.989Z,25.1
2018-05-29T14:56:45.804Z,25.1
2018-05-29T14:57:35.841Z,25.1
2018-05-29T14:58:26.458Z,25.1
2018-05-29T14:59:15.954Z,25.1
2018-05-29T15:00:06.841Z,25.1
2018-05-29T15:00:54.653Z,25.1
2018-05-29T15:01:46.957Z,25.1
2018-05-29T15:02:35.898Z,25.1
2018-05-29T15:03:26.329Z,25
2018-05-29T15:04:16.907Z,25
2018-05-29T15:05:07.004Z,24.9
2018-05-29T15:05:55.962Z,24.9
2018-05-29T15:06:47.057Z,24.9
2018-05-29T15:07:37.111Z,24.9
2018-05-29T15:08:26.493Z,24.9
2018-05-29T15:09:17.156Z,24.9
2018-05-29T15:10:07.319Z,24.9
2018-05-29T15:10:57.481Z,24.9
2018-05-29T15:11:47.439Z,24.9
2018-05-29T15:12:37.015Z,24.9
2018-05-29T15:13:26.782Z,24.9
2018-05-29T15:14:17.410Z,24.9
2018-05-29T15:15:06.643Z,24.9
2018-05-29T15:15:57.341Z,24.9
2018-05-29T15:16:47.902Z,24.9
2018-05-29T15:17:37.407Z,24.9
2018-05-29T15:18:28.064Z,24.9
2018-05-29T15:19:17.277Z,24.9
2018-05-29T15:20:07.905Z,24.9
2018-05-29T15:20:58.236Z,24.9
2018-05-29T15:21:48.212Z,24.9
2018-05-29T15:22:37.826Z,24.9
2018-05-29T15:23:27.891Z,24.9
2018-05-29T15:24:17.826Z,24.9
2018-05-29T15:25:08.661Z,24.9
2018-05-29T15:25:58.586Z,24.9
2018-05-29T15:26:48.329Z,24.9
2018-05-29T15:27:38.975Z,24.9
2018-05-29T15:28:28.788Z,24.9
2018-05-29T15:29:17.726Z,24.9
2018-05-29T15:30:08.581Z,24.9
2018-05-29T15:30:58.628Z,24.9
2018-05-29T15:31:49.244Z,24.9
2018-05-29T15:32:38.765Z,24.9
2018-05-29T15:33:29.149Z,24.9
2018-05-29T15:34:18.896Z,24.9
2018-05-29T15:35:09.577Z,24.9
2018-05-29T15:35:59.306Z,24.9
2018-05-29T15:36:48.808Z,24.9
2018-05-29T15:37:39.432Z,24.9
2018-05-29T15:38:29.485Z,24.9
2018-05-29T15:39:19.589Z,24.9
2018-05-29T15:40:09.902Z,25
2018-05-29T15:40:59.627Z,24.9
2018-05-29T15:41:49.754Z,24.9
2018-05-29T15:42:39.857Z,25
2018-05-29T15:43:29.619Z,24.9
2018-05-29T15:44:19.969Z,24.9
2018-05-29T15:45:10.057Z,24.9
2018-05-29T15:45:59.498Z,24.9
2018-05-29T15:46:50.164Z,24.9
2018-05-29T15:47:39.709Z,24.9
2018-05-29T15:48:28.907Z,25
2018-05-29T15:49:20.324Z,25
2018-05-29T15:50:10.089Z,24.9
2018-05-29T15:50:59.899Z,24.9
2018-05-29T15:51:50.782Z,24.9
2018-05-29T15:52:40.058Z,24.9
2018-05-29T15:53:31.651Z,24.9
2018-05-29T15:54:20.381Z,24.9
2018-05-29T15:55:10.728Z,24.9
2018-05-29T15:56:01.071Z,24.9
2018-05-29T15:56:50.362Z,24.9
2018-05-29T15:57:40.972Z,24.9
2018-05-29T15:58:30.730Z,24.9
2018-05-29T15:59:21.337Z,24.9
2018-05-29T16:00:10.931Z,24.9
2018-05-29T16:01:00.595Z,24.9
2018-05-29T16:01:51.521Z,24.9
2018-05-29T16:02:41.575Z,24.9
2018-05-29T16:03:31.672Z,24.9
2018-05-29T16:04:21.197Z,24.9
2018-05-29T16:05:11.782Z,24.9
2018-05-29T16:06:00.980Z,24.9
2018-05-29T16:06:52.007Z,24.9
2018-05-29T16:07:41.710Z,24.9
2018-05-29T16:08:31.621Z,24.9
2018-05-29T16:09:21.929Z,24.9
2018-05-29T16:10:11.983Z,24.9
2018-05-29T16:11:02.331Z,24.9
2018-05-29T16:11:51.800Z,24.8
2018-05-29T16:12:41.888Z,24.8
2018-05-29T16:13:31.943Z,24.8
2018-05-29T16:14:22.549Z,24.8
2018-05-29T16:15:12.444Z,24.8
2018-05-29T16:16:01.847Z,24.8
2018-05-29T16:16:52.344Z,24.8
2018-05-29T16:17:42.105Z,24.9
2018-05-29T16:18:31.817Z,24.8
2018-05-29T16:19:22.804Z,24.8
2018-05-29T16:20:11.943Z,24.8
2018-05-29T16:21:02.274Z,24.8
2018-05-29T16:21:52.392Z,24.9
2018-05-29T16:22:42.387Z,24.8
2018-05-29T16:23:32.543Z,24.8
2018-05-29T16:24:23.162Z,24.8
2018-05-29T16:25:13.234Z,24.8
2018-05-29T16:26:02.158Z,24.8
2018-05-29T16:26:53.276Z,24.8
2018-05-29T16:27:42.227Z,24.8
2018-05-29T16:28:33.488Z,24.8
2018-05-29T16:29:23.177Z,24.8
2018-05-29T16:30:13.309Z,24.8
2018-05-29T16:31:03.111Z,24.8
2018-05-29T16:31:53.137Z,24.8
2018-05-29T16:32:43.490Z,24.8
2018-05-29T16:33:33.823Z,24.8
2018-05-29T16:34:23.624Z,24.8
2018-05-29T16:35:13.337Z,24.8
2018-05-29T16:36:04.317Z,24.8
2018-05-29T16:36:54.096Z,24.8
2018-05-29T16:37:43.014Z,24.8
2018-05-29T16:38:33.342Z,24.8
2018-05-29T16:39:24.272Z,24.8
2018-05-29T16:40:13.445Z,24.8
2018-05-29T16:41:04.401Z,24.8
2018-05-29T16:41:54.776Z,24.8
2018-05-29T16:42:44.540Z,24.8
2018-05-29T16:43:34.694Z,24.7
2018-05-29T16:44:24.626Z,24.8
2018-05-29T16:45:14.175Z,24.8
2018-05-29T16:46:04.765Z,24.8
2018-05-29T16:46:55.125Z,24.8
2018-05-29T16:47:44.689Z,24.8
2018-05-29T16:48:35.242Z,24.8
2018-05-29T16:49:24.435Z,24.8
2018-05-29T16:50:14.888Z,24.8
2018-05-29T16:51:04.851Z,24.8
2018-05-29T16:51:55.142Z,24.8
2018-05-29T16:52:44.641Z,24.7
2018-05-29T16:53:35.232Z,24.7
2018-05-29T16:54:25.071Z,24.7
2018-05-29T16:55:15.634Z,24.7
2018-05-29T16:56:05.432Z,24.7
2018-05-29T16:56:54.649Z,24.7
2018-05-29T16:57:45.549Z,24.7
2018-05-29T16:58:35.061Z,24.7
2018-05-29T16:59:25.477Z,24.7
2018-05-29T17:00:16.070Z,24.7
2018-05-29T17:01:05.783Z,24.7
2018-05-29T17:01:55.877Z,24.7
2018-05-29T17:02:45.767Z,24.7
2018-05-29T17:03:36.073Z,24.7
2018-05-29T17:04:26.188Z,24.7
2018-05-29T17:05:16.555Z,24.7
2018-05-29T17:06:05.426Z,24.8
2018-05-29T17:06:56.320Z,24.8
2018-05-29T17:07:45.824Z,24.7
2018-05-29T17:08:36.475Z,24.7
2018-05-29T17:09:26.647Z,24.6
2018-05-29T17:10:16.676Z,24.6
2018-05-29T17:11:06.388Z,24.6
2018-05-29T17:11:56.181Z,24.6
2018-05-29T17:12:46.468Z,24.6
2018-05-29T17:13:36.276Z,24.6
2018-05-29T17:14:27.112Z,24.6
2018-05-29T17:15:18.719Z,24.6
2018-05-29T17:16:07.247Z,24.6
2018-05-29T17:16:56.974Z,24.6
2018-05-29T17:17:47.316Z,24.6
2018-05-29T17:18:37.113Z,24.6
2018-05-29T17:19:27.201Z,24.6
2018-05-29T17:20:17.519Z,24.6
2018-05-29T17:21:06.991Z,24.6
2018-05-29T17:21:57.453Z,24.6
2018-05-29T17:22:47.376Z,24.6
2018-05-29T17:23:36.468Z,24.6
2018-05-29T17:24:27.653Z,24.6
2018-05-29T17:25:17.310Z,24.6
2018-05-29T17:26:07.975Z,24.6
2018-05-29T17:26:58.042Z,24.6
2018-05-29T17:27:47.826Z,24.6
2018-05-29T17:28:38.178Z,24.6
2018-05-29T17:29:27.420Z,24.6
2018-05-29T17:30:17.205Z,24.6
2018-05-29T17:31:08.090Z,24.6
2018-05-29T17:31:59.141Z,24.6
2018-05-29T17:32:47.717Z,24.6
2018-05-29T17:33:36.971Z,24.6
2018-05-29T17:34:27.815Z,24.6
2018-05-29T17:35:18.141Z,24.6
2018-05-29T17:36:08.160Z,24.6
2018-05-29T17:36:58.560Z,24.6
2018-05-29T17:37:48.631Z,24.6
2018-05-29T17:38:38.973Z,24.6
2018-05-29T17:39:28.997Z,24.6
2018-05-29T17:40:18.213Z,24.5
2018-05-29T17:41:09.152Z,24.5
2018-05-29T17:41:58.905Z,24.6
2018-05-29T17:42:49.005Z,24.6
2018-05-29T17:43:39.034Z,24.6
2018-05-29T17:44:29.148Z,24.6
2018-05-29T17:45:18.622Z,24.6
2018-05-29T17:46:08.706Z,24.6
2018-05-29T17:46:59.505Z,24.6
2018-05-29T17:47:49.605Z,24.6
2018-05-29T17:48:39.144Z,24.6
2018-05-29T17:49:29.503Z,24.5
2018-05-29T17:50:19.826Z,24.6
2018-05-29T17:51:09.597Z,24.6
2018-05-29T17:51:59.380Z,24.5
2018-05-29T17:52:49.175Z,24.5
2018-05-29T17:53:40.064Z,24.5
2018-05-29T17:54:29.519Z,24.5
2018-05-29T17:55:20.235Z,24.5
2018-05-29T17:56:09.988Z,24.4
2018-05-29T17:56:59.767Z,24.5
2018-05-29T17:57:49.260Z,24.5
2018-05-29T17:58:40.143Z,24.5
2018-05-29T17:59:29.933Z,24.6
2018-05-29T18:00:20.591Z,24.6
2018-05-29T18:01:10.426Z,24.5
2018-05-29T18:02:00.425Z,24.5
2018-05-29T18:02:50.259Z,24.5
2018-05-29T18:03:39.564Z,24.5
2018-05-29T18:04:30.597Z,24.4
2018-05-29T18:05:20.919Z,24.4
2018-05-29T18:06:10.985Z,24.4
2018-05-29T18:07:00.782Z,24.4
2018-05-29T18:07:50.948Z,24.4
2018-05-29T18:08:40.344Z,24.4
2018-05-29T18:09:30.840Z,24.4
2018-05-29T18:10:21.408Z,24.4
2018-05-29T18:11:10.886Z,24.4
2018-05-29T18:12:00.643Z,24.4
2018-05-29T18:12:51.244Z,24.4
2018-05-29T18:13:41.027Z,24.4
2018-05-29T18:14:31.643Z,24.5
2018-05-29T18:15:21.726Z,24.5
2018-05-29T18:16:11.486Z,24.4
2018-05-29T18:17:01.605Z,24.4
2018-05-29T18:17:50.823Z,24.4
2018-05-29T18:18:41.197Z,24.4
2018-05-29T18:19:31.264Z,24.4
2018-05-29T18:20:21.667Z,24.4
2018-05-29T18:21:11.046Z,24.4
2018-05-29T18:22:02.275Z,24.4
2018-05-29T18:22:51.012Z,24.3
2018-05-29T18:23:42.058Z,24.3
2018-05-29T18:24:31.903Z,24.3
2018-05-29T18:25:21.411Z,24.3
2018-05-29T18:26:12.370Z,24.3
2018-05-29T18:27:02.384Z,24.3
2018-05-29T18:27:51.338Z,24.3
2018-05-29T18:28:42.201Z,24.3
2018-05-29T18:29:32.290Z,24.3
2018-05-29T18:30:22.043Z,24.3
2018-05-29T18:31:13.243Z,24.3
2018-05-29T18:32:03.055Z,24.3
2018-05-29T18:32:52.899Z,24.4
2018-05-29T18:33:42.285Z,24.4
2018-05-29T18:34:32.924Z,24.4
2018-05-29T18:35:22.992Z,24.4
2018-05-29T18:36:13.022Z,24.4
2018-05-29T18:37:02.800Z,24.4
2018-05-29T18:37:52.636Z,24.4
2018-05-29T18:38:43.216Z,24.4
2018-05-29T18:39:33.323Z,24.4
2018-05-29T18:40:21.967Z,24.4
2018-05-29T18:41:13.772Z,24.4
2018-05-29T18:42:02.950Z,24.4
2018-05-29T18:42:53.004Z,24.4
2018-05-29T18:43:43.196Z,24.4
2018-05-29T18:44:34.690Z,24.4
2018-05-29T18:45:23.793Z,24.4
2018-05-29T18:46:13.567Z,24.5
2018-05-29T18:47:04.436Z,24.5
2018-05-29T18:47:53.900Z,24.5
2018-05-29T18:48:43.153Z,24.5
2018-05-29T18:49:34.790Z,24.5
2018-05-29T18:50:24.448Z,24.5
2018-05-29T18:51:13.873Z,24.4
2018-05-29T18:52:03.937Z,24.4
2018-05-29T18:52:54.283Z,24.4
2018-05-29T18:53:44.054Z,24.4
2018-05-29T18:54:33.341Z,24.3
2018-05-29T18:55:24.807Z,24.4
2018-05-29T18:56:13.697Z,24.4
2018-05-29T18:57:04.399Z,24.4
2018-05-29T18:57:53.587Z,24.4
2018-05-29T18:58:44.770Z,24.4
2018-05-29T18:59:34.815Z,24.4
2018-05-29T19:00:24.629Z,24.4
2018-05-29T19:01:14.628Z,24.4
2018-05-29T19:02:05.032Z,24.4
2018-05-29T19:02:54.507Z,24.4
2018-05-29T19:03:45.038Z,24.4
2018-05-29T19:04:34.983Z,24.4
2018-05-29T19:05:24.728Z,24.4
2018-05-29T19:06:14.733Z,24.4
2018-05-29T19:07:05.367Z,24.4
2018-05-29T19:07:55.755Z,24.4
2018-05-29T19:08:44.909Z,24.4
2018-05-29T19:09:35.073Z,24.4
2018-05-29T19:10:25.660Z,24.4
2018-05-29T19:11:14.646Z,24.4
2018-05-29T19:12:05.216Z,24.4
2018-05-29T19:12:54.843Z,24.4
2018-05-29T19:13:45.074Z,24.4
2018-05-29T19:14:36.038Z,24.4
2018-05-29T19:15:26.119Z,24.4
2018-05-29T19:16:16.075Z,24.4
2018-05-29T19:17:07.171Z,24.4
2018-05-29T19:17:55.726Z,24.4
2018-05-29T19:18:45.822Z,24.3
2018-05-29T19:19:36.102Z,24.3
2018-05-29T19:20:25.332Z,24.3
2018-05-29T19:21:15.951Z,24.3
2018-05-29T19:22:06.626Z,24.3
2018-05-29T19:22:58.244Z,24.3
2018-05-29T19:23:46.621Z,24.3
2018-05-29T19:24:36.677Z,24.3
2018-05-29T19:25:26.340Z,24.3
2018-05-29T19:26:16.555Z,24.3
2018-05-29T19:27:06.638Z,24.3
2018-05-29T19:27:56.661Z,24.4
2018-05-29T19:28:46.639Z,24.4
2018-05-29T19:29:36.251Z,24.3
2018-05-29T19:30:27.270Z,24.4
2018-05-29T19:31:16.730Z,24.3
2018-05-29T19:32:07.368Z,24.3
2018-05-29T19:32:57.429Z,24.3
2018-05-29T19:33:47.127Z,24.3
2018-05-29T19:34:37.511Z,24.3
2018-05-29T19:35:27.786Z,24.3
2018-05-29T19:36:17.354Z,24.3
2018-05-29T19:37:07.355Z,24.3
2018-05-29T19:37:57.727Z,24.3
2018-05-29T19:38:47.840Z,24.3
2018-05-29T19:39:37.703Z,24.3
2018-05-29T19:40:27.172Z,24.3
2018-05-29T19:41:17.234Z,24.3
2018-05-29T19:42:07.510Z,24.4
2018-05-29T19:42:57.840Z,24.4
2018-05-29T19:43:47.947Z,24.4
2018-05-29T19:44:37.468Z,24.4
2018-05-29T19:45:28.364Z,24.3
2018-05-29T19:46:18.615Z,24.3
2018-05-29T19:47:08.515Z,24.3
2018-05-29T19:47:58.998Z,24.3
2018-05-29T19:48:48.276Z,24.3
2018-05-29T19:49:38.625Z,24.3
2018-05-29T19:50:28.996Z,24.3
2018-05-29T19:51:19.106Z,24.3
2018-05-29T19:52:08.527Z,24.3
2018-05-29T19:52:58.332Z,24.3
2018-05-29T19:53:49.361Z,24.3
2018-05-29T19:54:38.797Z,24.3
2018-05-29T19:55:28.854Z,24.3
2018-05-29T19:56:18.904Z,24.3
2018-05-29T19:57:07.874Z,24.3
2018-05-29T19:57:59.604Z,24.3
2018-05-29T19:58:48.802Z,24.3
2018-05-29T19:59:39.456Z,24.3
2018-05-29T20:00:29.274Z,24.3
2018-05-29T20:01:20.510Z,24.3
2018-05-29T20:02:08.564Z,24.4
2018-05-29T20:02:58.841Z,24.4
2018-05-29T20:03:49.180Z,24.4
2018-05-29T20:04:39.539Z,24.4
2018-05-29T20:05:29.019Z,24.4
2018-05-29T20:06:19.625Z,24.4
2018-05-29T20:07:09.481Z,24.4
2018-05-29T20:08:00.281Z,24.4
2018-05-29T20:08:50.151Z,24.3
2018-05-29T20:09:39.644Z,24.4
2018-05-29T20:10:29.850Z,24.4
2018-05-29T20:11:19.556Z,24.4
2018-05-29T20:12:09.990Z,24.4
2018-05-29T20:12:59.933Z,24.3
2018-05-29T20:13:50.844Z,24.3
2018-05-29T20:14:40.282Z,24.3
2018-05-29T20:15:30.897Z,24.3
2018-05-29T20:16:20.977Z,24.3
2018-05-29T20:17:09.806Z,24.3
2018-05-29T20:17:59.768Z,24.3
2018-05-29T20:18:49.758Z,24.3
2018-05-29T20:19:39.640Z,24.3
2018-05-29T20:20:31.197Z,24.3
2018-05-29T20:21:21.275Z,24.3
2018-05-29T20:22:10.514Z,24.3
2018-05-29T20:23:00.865Z,24.3
2018-05-29T20:23:51.323Z,24.4
2018-05-29T20:24:40.831Z,24.4
2018-05-29T20:25:30.232Z,24.4
2018-05-29T20:26:20.641Z,24.4
2018-05-29T20:27:10.666Z,24.4
2018-05-29T20:28:01.923Z,24.5
2018-05-29T20:28:51.398Z,24.5
2018-05-29T20:29:41.439Z,24.5
2018-05-29T20:30:31.209Z,24.5
2018-05-29T20:31:21.912Z,24.5
2018-05-29T20:32:11.094Z,24.6
2018-05-29T20:33:01.666Z,24.6
2018-05-29T20:33:52.327Z,24.6
2018-05-29T20:34:42.139Z,24.6
2018-05-29T20:35:31.115Z,24.6
2018-05-29T20:36:22.038Z,24.6
2018-05-29T20:37:11.572Z,24.6
2018-05-29T20:38:01.874Z,24.6
2018-05-29T20:38:53.041Z,24.6
2018-05-29T20:39:42.217Z,24.6
2018-05-29T20:40:32.828Z,24.6
2018-05-29T20:41:21.739Z,24.6
2018-05-29T20:42:12.742Z,24.6
2018-05-29T20:43:02.194Z,24.6
2018-05-29T20:43:53.108Z,24.5
2018-05-29T20:44:42.375Z,24.5
2018-05-29T20:45:32.960Z,24.5
2018-05-29T20:46:22.441Z,24.4
2018-05-29T20:47:13.053Z,24.4
2018-05-29T20:48:02.948Z,24.4
2018-05-29T20:48:52.958Z,24.4
2018-05-29T20:49:42.689Z,24.4
2018-05-29T20:50:32.483Z,24.4
2018-05-29T20:51:22.839Z,24.4
2018-05-29T20:52:13.139Z,24.4
2018-05-29T20:53:03.225Z,24.4
2018-05-29T20:53:53.799Z,24.3
2018-05-29T20:54:43.382Z,24.4
2018-05-29T20:55:33.975Z,24.3
2018-05-29T20:56:23.520Z,24.4
2018-05-29T20:57:13.242Z,24.3
2018-05-29T20:58:04.227Z,24.3
2018-05-29T20:58:54.000Z,24.3
2018-05-29T20:59:42.878Z,24.3
2018-05-29T21:00:33.816Z,24.3
2018-05-29T21:01:23.602Z,24.4
2018-05-29T21:02:13.625Z,24.3
2018-05-29T21:03:04.274Z,24.3
2018-05-29T21:03:54.106Z,24.3
2018-05-29T21:04:44.067Z,24.3
2018-05-29T21:05:34.182Z,24.3
2018-05-29T21:06:24.239Z,24.3
2018-05-29T21:07:14.856Z,24.3
2018-05-29T21:08:04.979Z,24.3
2018-05-29T21:08:54.729Z,24.3
2018-05-29T21:09:45.106Z,24.3
2018-05-29T21:10:34.558Z,24.3
2018-05-29T21:11:24.914Z,24.3
2018-05-29T21:12:14.997Z,24.3
2018-05-29T21:13:05.017Z,24.3
2018-05-29T21:13:55.037Z,24.3
2018-05-29T21:14:45.428Z,24.3
2018-05-29T21:15:34.210Z,24.3
2018-05-29T21:16:24.402Z,24.3
2018-05-29T21:17:15.655Z,24.3
2018-05-29T21:18:05.160Z,24.3
2018-05-29T21:18:55.586Z,24.3
2018-05-29T21:19:45.292Z,24.3
2018-05-29T21:20:35.003Z,24.3
2018-05-29T21:21:25.293Z,24.3
2018-05-29T21:22:15.318Z,24.3
2018-05-29T21:23:05.477Z,24.3
2018-05-29T21:23:55.738Z,24.4
2018-05-29T21:24:45.803Z,24.4
2018-05-29T21:25:35.668Z,24.4
2018-05-29T21:26:25.995Z,24.4
2018-05-29T21:27:16.029Z,24.5
2018-05-29T21:28:06.109Z,24.5
2018-05-29T21:28:55.309Z,24.5
2018-05-29T21:29:46.216Z,24.5
2018-05-29T21:30:36.616Z,24.5
2018-05-29T21:31:26.644Z,24.5
2018-05-29T21:32:16.114Z,24.6
2018-05-29T21:33:06.477Z,24.6
2018-05-29T21:33:55.109Z,24.6
2018-05-29T21:34:46.330Z,24.5
2018-05-29T21:35:36.616Z,24.6
2018-05-29T21:36:26.999Z,24.5
2018-05-29T21:37:16.533Z,24.5
2018-05-29T21:38:06.248Z,24.6
2018-05-29T21:38:56.350Z,24.6
2018-05-29T21:39:47.233Z,24.6
2018-05-29T21:40:37.334Z,24.6
2018-05-29T21:41:27.051Z,24.6
2018-05-29T21:42:17.123Z,24.6
2018-05-29T21:43:07.189Z,24.6
2018-05-29T21:43:57.545Z,24.6
2018-05-29T21:44:47.034Z,24.6
2018-05-29T21:45:37.679Z,24.6
2018-05-29T21:46:27.939Z,24.5
2018-05-29T21:47:17.490Z,24.6
2018-05-29T21:48:07.297Z,24.6
2018-05-29T21:48:57.378Z,24.6
2018-05-29T21:49:47.734Z,24.6
2018-05-29T21:50:37.469Z,24.5
2018-05-29T21:51:27.869Z,24.5
2018-05-29T21:52:17.918Z,24.5
2018-05-29T21:53:07.932Z,24.5
2018-05-29T21:53:58.357Z,24.5
2018-05-29T21:54:47.879Z,24.5
2018-05-29T21:55:37.878Z,24.5
2018-05-29T21:56:28.188Z,24.5
2018-05-29T21:57:18.311Z,24.5
2018-05-29T21:58:08.088Z,24.5
2018-05-29T21:58:57.840Z,24.5
2018-05-29T21:59:48.176Z,24.5
2018-05-29T22:00:38.280Z,24.5
2018-05-29T22:01:28.345Z,24.5
2018-05-29T22:02:18.655Z,24.5
2018-05-29T22:03:08.755Z,24.5
2018-05-29T22:03:58.803Z,24.5
2018-05-29T22:04:48.273Z,24.5
2018-05-29T22:05:38.370Z,24.5
2018-05-29T22:06:28.687Z,24.5
2018-05-29T22:07:18.760Z,24.5
2018-05-29T22:08:08.289Z,24.5
2018-05-29T22:08:58.075Z,24.5
2018-05-29T22:09:49.261Z,24.4
2018-05-29T22:10:39.075Z,24.4
2018-05-29T22:11:29.637Z,24.4
2018-05-29T22:12:19.138Z,24.4
2018-05-29T22:13:09.790Z,24.4
2018-05-29T22:13:59.621Z,24.4
2018-05-29T22:14:49.880Z,24.4
2018-05-29T22:15:40.008Z,24.4
2018-05-29T22:16:29.947Z,24.4
2018-05-29T22:17:19.789Z,24.4
2018-05-29T22:18:10.172Z,24.4
2018-05-29T22:19:00.218Z,24.4
2018-05-29T22:19:49.749Z,24.4
2018-05-29T22:20:40.027Z,24.4
2018-05-29T22:21:29.956Z,24.4
2018-05-29T22:22:20.186Z,24.4
2018-05-29T22:23:10.024Z,24.4
2018-05-29T22:24:00.088Z,24.4
2018-05-29T22:24:50.389Z,24.4
2018-05-29T22:25:40.470Z,24.4
2018-05-29T22:26:30.826Z,24.4
2018-05-29T22:27:20.872Z,24.4
2018-05-29T22:28:10.923Z,24.4
2018-05-29T22:29:00.751Z,24.4
2018-05-29T22:29:51.028Z,24.4
2018-05-29T22:30:41.948Z,24.4
2018-05-29T22:31:30.914Z,24.4
2018-05-29T22:32:20.990Z,24.4
2018-05-29T22:33:11.338Z,24.4
2018-05-29T22:34:00.840Z,24.4
2018-05-29T22:34:50.901Z,24.4
2018-05-29T22:35:41.000Z,24.4
2018-05-29T22:36:30.727Z,24.4
2018-05-29T22:37:21.606Z,24.4
2018-05-29T22:38:11.172Z,24.4
2018-05-29T22:39:01.165Z,24.4
2018-05-29T22:39:51.280Z,24.4
2018-05-29T22:40:41.546Z,24.4
2018-05-29T22:41:31.363Z,24.4
2018-05-29T22:42:22.037Z,24.4
2018-05-29T22:43:11.219Z,24.4
2018-05-29T22:44:01.071Z,24.4
2018-05-29T22:44:51.393Z,24.4
2018-05-29T22:45:41.089Z,24.3
2018-05-29T22:46:31.740Z,24.4
2018-05-29T22:47:21.240Z,24.4
2018-05-29T22:48:12.199Z,24.3
2018-05-29T22:49:02.524Z,24.4
2018-05-29T22:49:52.598Z,24.3
2018-05-29T22:50:42.119Z,24.3
2018-05-29T22:51:32.749Z,24.3
2018-05-29T22:52:22.215Z,24.3
2018-05-29T22:53:12.295Z,24.3
2018-05-29T22:54:02.680Z,24.4
2018-05-29T22:54:52.123Z,24.3
2018-05-29T22:55:42.195Z,24.3
2018-05-29T22:56:32.363Z,24.3
2018-05-29T22:57:22.324Z,24.3
2018-05-29T22:58:12.724Z,24.3
2018-05-29T22:59:02.503Z,24.3
2018-05-29T22:59:52.774Z,24.3
2018-05-29T23:00:43.404Z,24.3
2018-05-29T23:01:33.227Z,24.3
2018-05-29T23:02:22.985Z,24.3
2018-05-29T23:03:13.319Z,24.3
2018-05-29T23:04:03.089Z,24.3
2018-05-29T23:04:53.727Z,24.3
2018-05-29T23:05:44.265Z,24.3
2018-05-29T23:06:33.290Z,24.3
2018-05-29T23:07:23.714Z,24.3
2018-05-29T23:08:13.455Z,24.3
2018-05-29T23:09:03.792Z,24.3
2018-05-29T23:09:52.733Z,24.3
2018-05-29T23:10:43.960Z,24.3
2018-05-29T23:11:33.947Z,24.3
2018-05-29T23:12:24.049Z,24.3
2018-05-29T23:13:14.119Z,24.3
2018-05-29T23:14:04.139Z,24.3
2018-05-29T23:14:54.484Z,24.3
2018-05-29T23:15:43.989Z,24.3
2018-05-29T23:16:34.544Z,24.3
2018-05-29T23:17:24.108Z,24.3
2018-05-29T23:18:13.626Z,24.3
2018-05-29T23:19:04.527Z,24.3
2018-05-29T23:19:53.738Z,24.3
2018-05-29T23:20:44.123Z,24.3
2018-05-29T23:21:34.393Z,24.3
2018-05-29T23:22:23.887Z,24.3
2018-05-29T23:23:14.824Z,24.3
2018-05-29T23:24:05.240Z,24.2
2018-05-29T23:24:54.100Z,24.2
2018-05-29T23:25:45.024Z,24.3
2018-05-29T23:26:34.290Z,24.3
2018-05-29T23:27:24.865Z,24.2
2018-05-29T23:28:14.372Z,24.3
2018-05-29T23:29:04.247Z,24.3
2018-05-29T23:29:54.584Z,24.3
2018-05-29T23:30:45.154Z,24.3
2018-05-29T23:31:35.457Z,24.3
2018-05-29T23:32:24.985Z,24.3
2018-05-29T23:33:15.904Z,24.3
2018-05-29T23:34:05.387Z,24.2
2018-05-29T23:34:55.455Z,24.3
2018-05-29T23:35:45.696Z,24.2
2018-05-29T23:36:35.021Z,24.2
2018-05-29T23:37:26.190Z,24.2
2018-05-29T23:38:15.164Z,24.2
2018-05-29T23:39:06.311Z,24.2
2018-05-29T23:39:55.270Z,24.2
2018-05-29T23:40:46.168Z,24.2
2018-05-29T23:41:36.270Z,24.2
2018-05-29T23:42:26.022Z,24.2
2018-05-29T23:43:15.512Z,24.2
2018-05-29T23:44:06.421Z,24.2
2018-05-29T23:44:56.219Z,24.2
2018-05-29T23:45:46.303Z,24.2
2018-05-29T23:46:36.868Z,24.2
2018-05-29T23:47:26.714Z,24.2
2018-05-29T23:48:16.451Z,24.2
2018-05-29T23:49:06.791Z,24.1
2018-05-29T23:49:57.176Z,24.2
2018-05-29T23:50:46.639Z,24.1
2018-05-29T23:51:37.313Z,24.2
2018-05-29T23:52:27.051Z,24.2
2018-05-29T23:53:16.867Z,24.2
2018-05-29T23:54:07.249Z,24.1
2018-05-29T23:54:56.676Z,24.1